East Andover, NH (03231)

7:24 AM EDT on August 27, 2016 (GMT -0400)
East andover, NH | | Change Station

Elev 751 ft 43.46 °N, 71.76 °W | Updated 14 seconds ago

Clear
Clear
60.4 °F
Feels Like 60.4 °F
N
0.0
Wind Variable Wind from NE
Gusts 0.0 mph

Today
High -- | Low -- °F
--% Chance of Precip.
Yesterday
High -- | Low -- °F
Precip. -- in
Pressure 30.22 in
Visibility 10.0 miles
Clouds Clear
Dew Point 53 °F
Humidity 77%
Rainfall 0.00 in
Snow Depth Not available.
6:05 AM 7:30 PM
Waning Crescent, 25% visible
METAR KLCI 271056Z AUTO 24004KT 10SM CLR 16/15 A3018 RMK AO2 SLP231 T01610150
Pressure 30.22 in
Visibility 10.0 miles
Clouds Clear
Dew Point 53 °F
Humidity 77%
Rainfall 0.00 in
Snow Depth Not available.
6:05 AM 7:30 PM
Waning Crescent, 25% visible
METAR KLCI 271056Z AUTO 24004KT 10SM CLR 16/15 A3018 RMK AO2 SLP231 T01610150

10-Day Weather Forecast

Almanac

Astronomy

Aug. 27, 2016 Rise Set
Actual Time
Civil Twilight
Nautical Twilight
Astronomical Twilight
Moon
Length of Visible Light
Length of Day
Tomorrow will be .
, % of the Moon is Illuminated

Today's Extremes

State Highs State Lows

Community

WunderPhotos

Upload Photos

1,935,322 photos uploaded!

WunderBlog® & News

Nearby

Air Quality

  Air Quality AQ Index Pollutant
Not available.

Snow Depth

Station Depth Elevation

Earthquake Activity

City Distance Mag. Time & Date
Minimum magnitude displayed is 2.5.

Coastal Water Temperatures

Place Temperature

Stations

Nearby Weather Stations

Station Location Temp. Windchill Dew Point Humidity Wind Precip. Elev Updated Type
                   

Watches & Warnings

There are currently no watches in effect.